createdAt,value
2018-07-09T00:02:10.466Z,20.40
2018-07-09T00:04:40.214Z,20.40
2018-07-09T00:07:12.362Z,20.40
2018-07-09T00:09:42.953Z,20.40
2018-07-09T00:14:41.075Z,20.30
2018-07-09T00:17:10.683Z,20.30
2018-07-09T00:19:39.809Z,20.30
2018-07-09T00:22:10.420Z,20.20
2018-07-09T00:24:41.867Z,20.30
2018-07-09T00:27:11.289Z,20.30
2018-07-09T00:29:42.990Z,20.20
2018-07-09T00:32:13.421Z,20.10
2018-07-09T00:34:53.794Z,20.00
2018-07-09T00:40:01.631Z,19.90
2018-07-09T00:42:31.213Z,19.80
2018-07-09T00:45:00.786Z,19.90
2018-07-09T00:47:31.720Z,19.80
2018-07-09T00:50:01.019Z,19.80
2018-07-09T00:52:30.278Z,19.80
2018-07-09T00:54:59.739Z,19.70
2018-07-09T00:57:29.042Z,19.60
2018-07-09T01:00:04.679Z,19.50
2018-07-09T01:02:36.367Z,19.60
2018-07-09T01:05:06.903Z,19.60
2018-07-09T01:07:37.216Z,19.60
2018-07-09T01:10:07.710Z,19.60
2018-07-09T01:12:37.732Z,19.50
2018-07-09T01:15:07.770Z,19.50
2018-07-09T01:17:37.858Z,19.50
2018-07-09T01:20:07.465Z,19.40
2018-07-09T01:22:38.318Z,19.30
2018-07-09T01:25:08.117Z,19.30
2018-07-09T01:27:37.153Z,19.30
2018-07-09T01:30:14.280Z,19.30
2018-07-09T01:32:43.602Z,19.20
2018-07-09T01:35:14.400Z,19.20
2018-07-09T01:37:43.845Z,19.10
2018-07-09T01:40:13.728Z,19.00
2018-07-09T01:42:42.906Z,19.00
2018-07-09T01:48:44.157Z,19.00
2018-07-09T01:51:15.198Z,19.00
2018-07-09T01:53:47.756Z,18.90
2018-07-09T01:56:17.495Z,18.90
2018-07-09T01:58:47.544Z,18.90
2018-07-09T02:01:16.530Z,18.90
2018-07-09T02:03:47.206Z,18.80
2018-07-09T02:06:17.536Z,18.80
2018-07-09T02:08:47.772Z,18.70
2018-07-09T02:11:17.763Z,18.70
2018-07-09T02:13:48.823Z,18.60
2018-07-09T02:16:17.719Z,18.60
2018-07-09T02:18:46.726Z,18.60
2018-07-09T02:21:17.015Z,18.70
2018-07-09T02:23:46.631Z,18.60
2018-07-09T02:26:16.931Z,18.60
2018-07-09T02:28:50.451Z,18.60
2018-07-09T02:31:20.732Z,18.60
2018-07-09T02:33:49.826Z,18.60
2018-07-09T02:41:20.297Z,18.30
2018-07-09T02:43:49.640Z,18.30
2018-07-09T02:46:18.548Z,18.30
2018-07-09T02:48:47.763Z,18.30
2018-07-09T02:51:17.196Z,18.20
2018-07-09T02:53:46.651Z,18.20
2018-07-09T02:56:16.368Z,18.10
2018-07-09T02:58:46.109Z,18.10
2018-07-09T03:03:44.479Z,18.10
2018-07-09T03:06:13.837Z,18.10
2018-07-09T03:08:47.651Z,18.10
2018-07-09T03:11:20.457Z,18.10
2018-07-09T03:13:53.253Z,18.00
2018-07-09T03:16:22.242Z,18.10
2018-07-09T03:18:54.630Z,18.00
2018-07-09T03:21:23.933Z,17.90
2018-07-09T03:23:53.787Z,17.90
2018-07-09T03:26:22.824Z,17.90
2018-07-09T03:28:52.072Z,17.90
2018-07-09T03:31:21.847Z,17.80
2018-07-09T03:33:52.417Z,17.80
2018-07-09T03:36:22.948Z,17.80
2018-07-09T03:38:53.534Z,17.70
2018-07-09T03:41:23.960Z,17.60
2018-07-09T03:43:53.621Z,17.60
2018-07-09T03:46:24.444Z,17.60
2018-07-09T03:51:24.152Z,17.60
2018-07-09T03:53:53.483Z,17.60
2018-07-09T03:56:22.657Z,17.50
2018-07-09T04:01:20.692Z,17.50
2018-07-09T04:04:01.717Z,17.40
2018-07-09T04:06:31.159Z,17.30
2018-07-09T04:09:11.177Z,17.30
2018-07-09T04:11:40.322Z,17.10
2018-07-09T04:14:09.893Z,17.10
2018-07-09T04:16:41.999Z,17.00
2018-07-09T04:19:11.857Z,17.00
2018-07-09T04:21:41.270Z,16.90
2018-07-09T04:24:10.925Z,17.00
2018-07-09T04:26:41.704Z,16.90
2018-07-09T04:29:11.321Z,16.90
2018-07-09T04:31:41.096Z,16.90
2018-07-09T04:34:19.511Z,16.90
2018-07-09T04:36:48.978Z,16.80
2018-07-09T04:39:19.160Z,16.70
2018-07-09T04:41:48.872Z,16.70
2018-07-09T04:44:19.164Z,16.60
2018-07-09T04:46:52.344Z,16.70
2018-07-09T04:49:21.640Z,16.70
2018-07-09T04:51:51.212Z,16.80
2018-07-09T04:54:20.377Z,16.80
2018-07-09T04:56:50.367Z,16.80
2018-07-09T04:59:24.021Z,16.90
2018-07-09T05:01:53.407Z,17.00
2018-07-09T05:04:24.388Z,17.00
2018-07-09T05:06:54.256Z,17.00
2018-07-09T05:09:24.030Z,17.00
2018-07-09T05:11:54.803Z,16.90
2018-07-09T05:14:24.622Z,16.90
2018-07-09T05:16:54.837Z,17.00
2018-07-09T05:19:25.776Z,17.20
2018-07-09T05:21:55.285Z,17.30
2018-07-09T05:24:24.234Z,17.20
2018-07-09T05:26:53.283Z,17.20
2018-07-09T05:29:23.050Z,17.10
2018-07-09T05:31:54.184Z,17.20
2018-07-09T05:34:24.390Z,17.20
2018-07-09T05:36:55.370Z,17.20
2018-07-09T05:39:26.249Z,17.30
2018-07-09T05:41:57.198Z,17.40
2018-07-09T05:44:27.222Z,17.50
2018-07-09T05:46:58.315Z,17.50
2018-07-09T05:49:29.831Z,17.50
2018-07-09T05:51:59.134Z,17.50
2018-07-09T05:54:28.702Z,17.50
2018-07-09T05:56:58.758Z,17.60
2018-07-09T05:59:28.645Z,17.60
2018-07-09T06:02:02.390Z,17.60
2018-07-09T06:04:31.344Z,17.60
2018-07-09T06:07:02.298Z,17.70
2018-07-09T06:12:00.572Z,17.70
2018-07-09T06:14:32.323Z,17.80
2018-07-09T06:17:02.314Z,18.00
2018-07-09T06:19:33.408Z,18.20
2018-07-09T06:22:02.503Z,18.30
2018-07-09T06:24:33.223Z,18.50
2018-07-09T06:27:03.179Z,19.30
2018-07-09T06:29:40.217Z,20.40
2018-07-09T06:32:10.102Z,21.40
2018-07-09T06:34:40.521Z,22.00
2018-07-09T06:37:11.328Z,22.60
2018-07-09T06:42:15.941Z,23.20
2018-07-09T06:44:45.878Z,23.70
2018-07-09T06:47:16.648Z,23.30
2018-07-09T06:49:46.766Z,23.40
2018-07-09T06:52:17.489Z,23.60
2018-07-09T06:54:50.111Z,23.80
2018-07-09T06:57:21.769Z,23.70
2018-07-09T06:59:50.939Z,24.30
2018-07-09T07:02:21.710Z,24.60
2018-07-09T07:04:51.305Z,24.50
2018-07-09T07:07:21.223Z,25.30
2018-07-09T07:09:53.560Z,26.00
2018-07-09T07:12:24.502Z,26.30
2018-07-09T07:14:53.619Z,27.10
2018-07-09T07:17:22.621Z,27.20
2018-07-09T07:19:53.101Z,27.20
2018-07-09T07:22:22.758Z,26.90
2018-07-09T07:24:52.834Z,26.90
2018-07-09T07:27:23.446Z,27.70
2018-07-09T07:29:55.377Z,27.40
2018-07-09T07:32:25.931Z,28.30
2018-07-09T07:34:55.319Z,26.80
2018-07-09T07:37:25.087Z,26.30
2018-07-09T07:39:54.159Z,27.10
2018-07-09T07:42:23.612Z,27.20
2018-07-09T07:45:03.318Z,27.60
2018-07-09T07:47:33.745Z,27.60
2018-07-09T07:50:05.833Z,28.30
2018-07-09T07:52:37.297Z,29.00
2018-07-09T07:55:07.298Z,29.30
2018-07-09T07:57:38.996Z,28.50
2018-07-09T08:00:09.583Z,27.40
2018-07-09T08:02:38.859Z,27.70
2018-07-09T08:05:09.350Z,28.30
2018-07-09T08:07:38.755Z,28.00
2018-07-09T08:10:08.853Z,28.20
2018-07-09T08:15:13.911Z,27.50
2018-07-09T08:17:46.860Z,28.00
2018-07-09T08:20:16.430Z,28.50
2018-07-09T08:25:18.127Z,28.80
2018-07-09T08:27:47.369Z,29.00
2018-07-09T08:30:20.644Z,28.50
2018-07-09T08:32:50.077Z,28.10
2018-07-09T08:35:19.127Z,28.30
2018-07-09T08:37:48.703Z,28.20
2018-07-09T08:40:18.371Z,28.50
2018-07-09T08:42:49.224Z,28.00
2018-07-09T08:45:19.207Z,27.70
2018-07-09T08:47:50.707Z,28.00
2018-07-09T08:50:22.402Z,28.10
2018-07-09T08:52:52.502Z,27.90
2018-07-09T08:55:23.648Z,28.80
2018-07-09T08:57:53.692Z,30.00
2018-07-09T09:00:23.087Z,30.60
2018-07-09T09:02:53.040Z,29.10
2018-07-09T09:05:31.655Z,29.00
2018-07-09T09:08:20.873Z,28.10
2018-07-09T09:10:52.889Z,29.20
2018-07-09T09:13:25.267Z,30.40
2018-07-09T09:16:22.154Z,31.60
2018-07-09T09:19:05.268Z,32.90
2018-07-09T09:21:37.891Z,33.30
2018-07-09T09:24:07.838Z,33.50
2018-07-09T09:26:38.734Z,32.10
2018-07-09T09:29:11.801Z,31.90
2018-07-09T09:32:00.500Z,32.80
2018-07-09T09:34:33.811Z,33.40
2018-07-09T09:37:04.122Z,34.20
2018-07-09T09:39:33.476Z,34.40
2018-07-09T09:42:04.565Z,34.80
2018-07-09T09:44:38.225Z,34.40
2018-07-09T09:47:08.389Z,32.90
2018-07-09T09:49:41.310Z,31.30
2018-07-09T09:52:12.414Z,31.10
2018-07-09T09:54:42.009Z,32.70
2018-07-09T09:57:12.184Z,33.90
2018-07-09T09:59:44.374Z,34.00
2018-07-09T10:02:19.776Z,34.20
2018-07-09T10:04:49.079Z,34.10
2018-07-09T10:07:22.488Z,33.70
2018-07-09T10:09:57.768Z,33.50
2018-07-09T10:12:31.050Z,34.50
2018-07-09T10:15:01.728Z,34.10
2018-07-09T10:17:32.690Z,32.60
2018-07-09T10:20:03.123Z,32.60
2018-07-09T10:22:33.972Z,33.80
2018-07-09T10:25:04.430Z,34.50
2018-07-09T10:27:33.793Z,33.90
2018-07-09T10:30:04.350Z,33.40
2018-07-09T10:32:34.337Z,32.40
2018-07-09T10:35:04.090Z,31.40
2018-07-09T10:37:42.813Z,31.30
2018-07-09T10:40:31.368Z,32.00
2018-07-09T10:43:01.744Z,31.40
2018-07-09T10:45:33.082Z,31.80
2018-07-09T10:48:03.148Z,31.80
2018-07-09T10:50:33.183Z,30.20
2018-07-09T10:53:06.269Z,31.70
2018-07-09T10:55:36.199Z,33.00
2018-07-09T10:58:05.764Z,32.10
2018-07-09T11:03:10.249Z,30.50
2018-07-09T11:05:40.826Z,29.30
2018-07-09T11:08:42.242Z,28.90
2018-07-09T11:11:20.288Z,30.20
2018-07-09T11:13:51.538Z,31.30
2018-07-09T11:16:22.236Z,30.10
2018-07-09T11:18:54.315Z,29.90
2018-07-09T11:21:27.618Z,29.90
2018-07-09T11:23:57.323Z,29.30
2018-07-09T11:26:27.426Z,29.10
2018-07-09T11:29:02.204Z,29.00
2018-07-09T11:31:32.436Z,29.50
2018-07-09T11:34:02.458Z,29.90
2018-07-09T11:36:32.280Z,29.70
2018-07-09T11:39:02.073Z,29.00
2018-07-09T11:41:35.129Z,28.80
2018-07-09T11:44:08.628Z,29.20
2018-07-09T11:46:53.210Z,29.40
2018-07-09T11:49:23.864Z,29.20
2018-07-09T11:51:53.720Z,28.40
2018-07-09T11:54:23.711Z,27.80
2018-07-09T11:56:56.445Z,27.90
2018-07-09T11:59:30.156Z,27.70
2018-07-09T12:02:00.648Z,27.80
2018-07-09T12:04:30.062Z,27.70
2018-07-09T12:07:01.017Z,28.00
2018-07-09T12:09:36.960Z,28.50
2018-07-09T12:12:07.640Z,29.00
2018-07-09T12:14:37.287Z,29.80
2018-07-09T12:17:07.202Z,31.20
2018-07-09T12:19:37.849Z,32.00
2018-07-09T12:22:08.479Z,32.70
2018-07-09T12:24:42.975Z,32.50
2018-07-09T12:27:12.170Z,31.90
2018-07-09T12:29:42.617Z,30.90
2018-07-09T12:32:12.196Z,30.50
2018-07-09T12:34:42.102Z,30.00
2018-07-09T12:37:16.956Z,29.50
2018-07-09T12:39:46.568Z,28.30
2018-07-09T12:42:16.740Z,27.30
2018-07-09T12:44:47.335Z,26.60
2018-07-09T12:47:17.206Z,26.60
2018-07-09T12:49:48.122Z,26.90
2018-07-09T12:52:27.291Z,27.10
2018-07-09T12:55:03.170Z,27.00
2018-07-09T12:57:33.625Z,27.00
2018-07-09T13:00:05.087Z,27.40
2018-07-09T13:02:35.387Z,27.30
2018-07-09T13:05:05.122Z,27.30
2018-07-09T13:07:35.694Z,27.50
2018-07-09T13:10:07.102Z,28.10
2018-07-09T13:12:36.547Z,27.70
2018-07-09T13:15:07.194Z,27.70
2018-07-09T13:17:42.327Z,27.80
2018-07-09T13:20:11.823Z,28.10
2018-07-09T13:22:45.091Z,28.00
2018-07-09T13:25:14.499Z,27.20
2018-07-09T13:27:43.651Z,26.70
2018-07-09T13:30:15.349Z,26.60
2018-07-09T13:32:44.726Z,26.40
2018-07-09T13:35:14.271Z,26.40
2018-07-09T13:37:44.263Z,26.80
2018-07-09T13:40:13.723Z,27.10
2018-07-09T13:42:52.199Z,27.40
2018-07-09T13:45:31.428Z,28.00
2018-07-09T13:48:01.177Z,27.80
2018-07-09T13:50:31.135Z,28.10
2018-07-09T13:53:00.727Z,28.30
2018-07-09T13:55:30.956Z,28.50
2018-07-09T13:58:00.245Z,28.50
2018-07-09T14:00:31.163Z,28.40
2018-07-09T14:03:00.879Z,27.90
2018-07-09T14:05:31.807Z,27.60
2018-07-09T14:08:02.838Z,27.40
2018-07-09T14:10:32.315Z,27.20
2018-07-09T14:13:01.927Z,27.10
2018-07-09T14:15:46.895Z,27.60
2018-07-09T14:18:17.269Z,27.70
2018-07-09T14:20:47.504Z,27.70
2018-07-09T14:23:20.020Z,28.00
2018-07-09T14:25:50.287Z,28.20
2018-07-09T14:28:28.404Z,27.80
2018-07-09T14:31:00.234Z,27.70
2018-07-09T14:33:29.519Z,27.40
2018-07-09T14:35:59.208Z,27.50
2018-07-09T14:38:49.717Z,27.50
2018-07-09T14:41:27.906Z,27.40
2018-07-09T14:43:59.097Z,27.70
2018-07-09T14:46:38.222Z,28.00
2018-07-09T14:49:10.731Z,28.20
2018-07-09T14:51:40.672Z,28.20
2018-07-09T14:54:10.089Z,27.60
2018-07-09T14:56:50.449Z,27.40
2018-07-09T14:59:22.555Z,27.10
2018-07-09T15:01:53.324Z,27.00
2018-07-09T15:04:25.266Z,27.30
2018-07-09T15:06:55.821Z,27.60
2018-07-09T15:09:26.341Z,27.90
2018-07-09T15:11:55.859Z,27.70
2018-07-09T15:14:28.353Z,27.70
2018-07-09T15:16:58.352Z,27.60
2018-07-09T15:19:28.628Z,27.50
2018-07-09T15:22:05.456Z,27.60
2018-07-09T15:24:38.278Z,27.60
2018-07-09T15:27:10.113Z,27.50
2018-07-09T15:29:41.952Z,27.60
2018-07-09T15:32:23.672Z,27.50
2018-07-09T15:34:53.737Z,27.60
2018-07-09T15:37:24.476Z,27.60
2018-07-09T15:39:54.807Z,27.40
2018-07-09T15:42:25.793Z,27.50
2018-07-09T15:44:55.373Z,27.30
2018-07-09T15:47:27.260Z,27.10
2018-07-09T15:50:00.603Z,26.90
2018-07-09T15:52:31.751Z,26.80
2018-07-09T15:55:01.791Z,26.90
2018-07-09T15:57:32.190Z,26.80
2018-07-09T16:00:06.069Z,26.70
2018-07-09T16:02:36.527Z,26.80
2018-07-09T16:05:06.497Z,27.00
2018-07-09T16:07:36.760Z,27.00
2018-07-09T16:10:22.197Z,27.10
2018-07-09T16:12:57.084Z,27.10
2018-07-09T16:15:28.233Z,27.00
2018-07-09T16:17:57.466Z,27.00
2018-07-09T16:20:27.739Z,26.90
2018-07-09T16:22:57.184Z,26.80
2018-07-09T16:25:29.474Z,26.80
2018-07-09T16:28:03.848Z,26.60
2018-07-09T16:30:36.359Z,26.50
2018-07-09T16:33:18.322Z,26.40
2018-07-09T16:35:55.566Z,26.40
2018-07-09T16:38:25.424Z,26.30
2018-07-09T16:40:55.675Z,26.30
2018-07-09T16:43:27.982Z,26.40
2018-07-09T16:46:00.596Z,26.30
2018-07-09T16:48:30.369Z,26.20
2018-07-09T16:51:02.915Z,26.00
2018-07-09T16:53:33.456Z,25.80
2018-07-09T16:56:03.516Z,25.60
2018-07-09T16:58:34.873Z,25.20
2018-07-09T17:01:10.772Z,25.10
2018-07-09T17:03:40.735Z,25.10
2018-07-09T17:06:11.216Z,25.30
2018-07-09T17:08:40.699Z,25.20
2018-07-09T17:11:11.200Z,25.30
2018-07-09T17:13:44.440Z,25.10
2018-07-09T17:16:30.623Z,25.10
2018-07-09T17:19:04.297Z,25.10
2018-07-09T17:21:38.659Z,25.20
2018-07-09T17:24:20.688Z,25.10
2018-07-09T17:26:52.907Z,24.90
2018-07-09T17:29:23.471Z,24.80
2018-07-09T17:31:54.350Z,24.90
2018-07-09T17:34:26.887Z,25.00
2018-07-09T17:36:56.314Z,25.10
2018-07-09T17:39:29.539Z,25.10
2018-07-09T17:42:02.681Z,24.90
2018-07-09T17:44:31.914Z,24.90
2018-07-09T17:47:01.207Z,24.90
2018-07-09T17:49:36.190Z,24.90
2018-07-09T17:52:06.450Z,24.80
2018-07-09T17:54:41.211Z,24.80
2018-07-09T17:57:16.648Z,24.80
2018-07-09T17:59:58.685Z,24.80
2018-07-09T18:02:32.111Z,24.80
2018-07-09T18:05:01.776Z,24.70
2018-07-09T18:07:33.700Z,24.60
2018-07-09T18:10:03.203Z,24.60
2018-07-09T18:12:36.217Z,24.50
2018-07-09T18:15:10.110Z,24.40
2018-07-09T18:17:43.037Z,24.40
2018-07-09T18:20:25.760Z,24.20
2018-07-09T18:23:39.388Z,24.40
2018-07-09T18:26:12.819Z,24.30
2018-07-09T18:28:50.124Z,24.40
2018-07-09T18:31:26.127Z,24.40
2018-07-09T18:34:04.312Z,24.40
2018-07-09T18:36:48.560Z,24.30
2018-07-09T18:39:33.089Z,24.20
2018-07-09T18:42:07.473Z,24.20
2018-07-09T18:44:39.253Z,24.10
2018-07-09T18:47:18.357Z,24.00
2018-07-09T18:50:00.852Z,23.90
2018-07-09T18:52:31.377Z,23.80
2018-07-09T18:55:04.137Z,23.60
2018-07-09T19:00:20.181Z,23.70
2018-07-09T19:02:59.016Z,23.70
2018-07-09T19:05:41.635Z,23.80
2018-07-09T19:10:55.407Z,23.60
2018-07-09T19:13:31.059Z,23.50
2018-07-09T19:16:08.709Z,23.40
2018-07-09T19:19:02.967Z,23.40
2018-07-09T19:21:55.106Z,23.20
2018-07-09T19:27:17.086Z,23.20
2018-07-09T19:30:07.850Z,23.20
2018-07-09T19:32:37.083Z,23.20
2018-07-09T19:35:29.578Z,23.10
2018-07-09T19:38:01.999Z,23.10
2018-07-09T19:40:36.504Z,23.00
2018-07-09T19:43:16.692Z,22.90
2018-07-09T19:45:57.826Z,23.00
2018-07-09T19:48:29.237Z,23.10
2018-07-09T19:50:58.636Z,23.10
2018-07-09T19:53:26.750Z,22.90
2018-07-09T19:55:55.440Z,22.90
2018-07-09T19:58:32.101Z,22.90
2018-07-09T20:01:00.375Z,22.90
2018-07-09T20:03:28.733Z,22.90
2018-07-09T20:06:02.276Z,22.90
2018-07-09T20:08:36.189Z,22.90
2018-07-09T20:11:11.565Z,22.70
2018-07-09T20:14:11.653Z,22.80
2018-07-09T20:16:45.615Z,22.80
2018-07-09T20:19:13.941Z,22.80
2018-07-09T20:21:43.375Z,22.70
2018-07-09T20:24:12.205Z,22.60
2018-07-09T20:26:41.497Z,22.50
2018-07-09T20:29:18.217Z,22.60
2018-07-09T20:31:51.220Z,22.50
2018-07-09T20:34:30.723Z,22.50
2018-07-09T20:37:00.513Z,22.50
2018-07-09T20:39:29.280Z,22.50
2018-07-09T20:41:58.524Z,22.50
2018-07-09T20:44:30.457Z,22.50
2018-07-09T20:47:04.068Z,22.50
2018-07-09T20:49:33.225Z,22.40
2018-07-09T20:52:02.439Z,22.30
2018-07-09T20:57:01.665Z,22.20
2018-07-09T20:59:30.115Z,22.10
2018-07-09T21:02:01.510Z,21.90
2018-07-09T21:04:33.366Z,21.80
2018-07-09T21:07:10.522Z,21.60
2018-07-09T21:09:39.107Z,21.70
2018-07-09T21:14:40.710Z,21.60
2018-07-09T21:17:08.481Z,21.60
2018-07-09T21:19:37.449Z,21.50
2018-07-09T21:22:06.027Z,21.50
2018-07-09T21:24:44.533Z,21.40
2018-07-09T21:30:02.109Z,21.00
2018-07-09T21:32:30.958Z,21.00
2018-07-09T21:34:59.549Z,21.10
2018-07-09T21:37:29.910Z,21.00
2018-07-09T21:39:59.780Z,21.00
2018-07-09T21:42:39.563Z,21.00
2018-07-09T21:45:09.453Z,20.90
2018-07-09T21:47:38.320Z,20.90
2018-07-09T21:50:11.793Z,20.80
2018-07-09T21:52:56.338Z,20.70
2018-07-09T21:55:46.884Z,20.60
2018-07-09T21:58:22.120Z,20.70
2018-07-09T22:00:50.522Z,20.60
2018-07-09T22:03:24.189Z,20.50
2018-07-09T22:05:52.764Z,20.40
2018-07-09T22:08:21.401Z,20.20
2018-07-09T22:10:50.226Z,20.00
2018-07-09T22:13:19.737Z,20.00
2018-07-09T22:15:50.239Z,20.00
2018-07-09T22:20:52.618Z,20.00
2018-07-09T22:23:21.723Z,20.00
2018-07-09T22:25:49.794Z,19.80
2018-07-09T22:28:17.669Z,19.60
2018-07-09T22:30:49.003Z,19.60
2018-07-09T22:33:22.363Z,19.60
2018-07-09T22:35:58.110Z,19.70
2018-07-09T22:38:51.566Z,19.50
2018-07-09T22:41:38.260Z,19.60
2018-07-09T22:44:22.826Z,19.60
2018-07-09T22:46:52.109Z,19.70
2018-07-09T22:49:21.457Z,19.50
2018-07-09T22:51:52.091Z,19.50
2018-07-09T22:54:21.330Z,19.50
2018-07-09T22:56:50.782Z,19.20
2018-07-09T22:59:20.952Z,19.20
2018-07-09T23:04:27.790Z,19.20
2018-07-09T23:06:57.769Z,19.20
2018-07-09T23:17:01.604Z,19.20
2018-07-09T23:22:20.603Z,19.10
2018-07-09T23:24:48.481Z,19.10
2018-07-09T23:27:18.595Z,19.00
2018-07-09T23:29:46.668Z,19.00
2018-07-09T23:34:44.072Z,19.00
2018-07-09T23:37:13.680Z,18.80
2018-07-09T23:39:41.866Z,18.80
2018-07-09T23:42:09.556Z,18.80
2018-07-09T23:44:38.205Z,18.80
2018-07-09T23:47:06.494Z,18.70
2018-07-09T23:49:34.255Z,18.60
2018-07-09T23:52:02.293Z,18.60
2018-07-09T23:54:32.193Z,18.70
2018-07-09T23:57:11.514Z,18.70
2018-07-09T23:59:53.212Z,18.70
